NATURA VA

 INFORMACIÓN METAR y TAF
METAR FOR LFPB
ADDS - METARS form results

(2240 UTC 17 June 2019)
Data provider http://aviationweather.gov/metar/data/
 
METAR text: LFPB 172230Z AUTO VRB02KT CAVOK 19/14 Q1016 NOSIG
Conditions at: LFPB (PARIS/LE BOURGET, FR) observed 2230 UTC 17 June 2019
Temperature: 19.0°C (66°F)
Dewpoint: 14.0°C (57°F) [RH = 73%]
Pressure (altimeter): 30.00 inches Hg (1016.0 mb)
Winds: variable direction winds at 2 MPH (2 knots; 1.0 m/s)
Visibility: 6 or more miles (10+ km)
Ceiling: ceiling and visibility are OK
Clouds: unknown
Weather: no significant weather observed at this time

METAR text: LFPB 172200Z AUTO 03003KT CAVOK 19/14 Q1016 NOSIG
Conditions at: LFPB (PARIS/LE BOURGET, FR) observed 2200 UTC 17 June 2019
Temperature: 19.0°C (66°F)
Dewpoint: 14.0°C (57°F) [RH = 73%]
Pressure (altimeter): 30.00 inches Hg (1016.0 mb)
Winds: from the NNE (30 degrees) at 3 MPH (3 knots; 1.5 m/s)
Visibility: 6 or more miles (10+ km)
Ceiling: ceiling and visibility are OK
Clouds: unknown
Weather: no significant weather observed at this time

Forecast for: LFPB (PARIS/LE BOURGET, FR)
Text: TAF LFPB 171700Z 1718/1818 12005KT CAVOK
Forecast period: 1800 UTC 17 June 2019 to 1800 UTC 18 June 2019
Forecast type: FROM: standard forecast or significant change
Winds: from the ESE (120 degrees) at 6 MPH (5 knots; 2.6 m/s)
Visibility: 6 or more miles 10+ km)
Ceiling: unknown
Clouds: missing
Weather: NSW  (no significant weather)
Text: TEMPO 1721/1724 VRB02KT
Forecast period: 2100 UTC 17 June 2019 to 0000 UTC 18 June 2019
Forecast type: TEMPORARY: The following changes expected for less than half the time period
Winds: variable direction winds at 2 MPH (2 knots; 1.0 m/s)
Visibility: missing
Ceiling: unknown
Clouds: missing
Weather: no significant weather forecast for this period

 MAPA DE AEROPUERTO

 INFORMACIÓN DE PISTA
Pista 03 Longitud 8743 ft Ancho 197 ft
Elevación 147 ft Umbral desplazado 0 ft Rumbo de pista 26
Pista 21 Longitud 8743 ft Ancho 197 ft
Elevación 182 ft Umbral desplazado 0 ft Rumbo de pista 206
Pista 07 Longitud 9843 ft Ancho 148 ft
Elevación 155 ft Umbral desplazado 985 ft Rumbo de pista 69
Pista 25 Longitud 9843 ft Ancho 148 ft
Elevación 186 ft Umbral desplazado 2953 ft Rumbo de pista 249
Pista 09 Longitud 6053 ft Ancho 148 ft
Elevación 148 ft Umbral desplazado 0 ft Rumbo de pista 86
Pista 27 Longitud 6053 ft Ancho 148 ft
Elevación 166 ft Umbral desplazado 0 ft Rumbo de pista 266

 FRECUANCIAS DEL AEROPUERTO
Tipo APP Nombre DE GAULLE Frecuencia 121.15 MHZ
Tipo APP Nombre DE GAULLE Frecuencia 136.275 MHZ
Tipo ATIS Nombre ATIS Frecuencia 120 MHZ
Tipo DEP Nombre DE GAULLE Frecuencia 124.35 MHZ
Tipo GND Nombre GND Frecuencia 121.9 MHZ
Tipo PFLT Nombre PREFLIGHT Frecuencia 121.95 MHZ
Tipo TWR Nombre TWR Frecuencia 118.925 MHZ

 RADIO AYUDAS DEL AEROPUERTO
Tipo VOR-DME Nombre Le Bourget Frecuencia 116100 KHZ



Powered by Virtual Airlines Manager [v2.6.2]